To NAV CANADA Home Page Login to a new session Search on AWWS site Feedback and Comments Disclaimer Vers la page française équivalente Tips FAQ What's new on the site To the Forecasts and Observations / NOTAM section To "File a Flight Plan" website Publications and other links Update of the User's profile FIC Telephone Numbers My Weather Data Folder Route Weather Data Regional Weather Data Local Weather Data To the Forecasts and Observations / NOTAM section
Request Generated 08/25/2016 at 14:52:32 UTC . Weather information available at that time is displayed.

METAR/TAF

TORONTO/BUTTONVILLE MUNICIPAL/ON    

METAR CYKZ 251400Z 28005KT 12SM FEW015 FEW160 SCT200 26/22 A2993 RMK
CU2AC1CI1 AC TR SLP135 DENSITY ALT 2000FT=
METAR CYKZ 251300Z 26003KT 210V340 8SM FEW008 FEW013 FEW085 SCT200
BKN260 25/22 A2992 RMK SF1CF1AC1CC2CS1 AC TR SLP130 DENSITY ALT
1900FT=
METAR CYKZ 251200Z 21004KT 6SM BR FEW006 FEW015 SCT085 BKN270 23/22
A2992 RMK ST1SC1AC2CS4 SC TR SLP131 DENSITY ALT 1700FT=

TAF CYKZ 251139Z 2512/2524 23005KT P6SM SCT015 BKN260 TEMPO 2512/2516
BKN015
FM251600 26012KT P6SM SCT030
FM252100 24012KT P6SM -SHRA BKN040 OVC120 PROB30 2521/2524
VRB15G30KT 3/4SM +TSRA BKN015 OVC030CB
RMK NXT FCST BY 251800Z=
Your time UTC time
Weather data provided by Environment Canada and NAV CANADA